Terminal Aerodrome Forecast
Issued by NWS

Home | Current Version | Previous Version | Text Only | Print | Product List | Glossary On
Versions: 1 2 3 4 5 6 7 8 9 10 11 12 13
000
FTUS45 KTFX 280500
TAFCTB
TAF
KCTB 280534Z 2806/2906 VRB06KT 3SM -SN BR OVC020
      TEMPO 2807/2811 6SM -SN BR OVC035
     FM281100 36017KT 1/2SM -SN FZFG OVC005
     FM282200 36015KT 4SM -SN BR OVC015
     FM290400 36010KT P6SM -SN OVC015=

USA.gov is the U.S. government's official web portal to all federal, state and local government web resources and services.